Share

Wadi El Natroon, Egypt

Borg El Arab International (HEBA) Elev 174 ft | 30.92 °N, 29.70 °E | Change Station

Current weather conditions updated 28 minutes ago

Clear
Clear
63 °F
Feels Like 63 °F
N
14
Wind Variable Wind from SE
Sunrise 5:29 AM
Sunset 6:28 PM
Moon Waning Gibbous

Today is forecast to be Much Warmer than yesterday.

Pressure 29.80 in
Visibility -9999.0 miles
Clouds
Dew Point 50 °F
Humidity 63%
Rainfall 0.00 in
Snow Depth Not available.
UV Not available.
Pollen Not available.
Air Quality Not available.
Flu Activity Not available.
METAR HEBA 180100Z 13012KT CAVOK 17/10 Q1009 NOSIG

More Conditions Fewer Conditions

Pressure 29.80 in
Visibility -9999.0 miles
Clouds
Dew Point 50 °F
Humidity 63%
Rainfall 0.00 in
Snow Depth Not available.
UV Not available.
Pollen Not available.
Air Quality Not available.
Flu Activity Not available.
METAR HEBA 180100Z 13012KT CAVOK 17/10 Q1009 NOSIG

More Conditions Fewer Conditions

10-Day Forecast

Almanac

Astronomy

Apr. 18, 2014 Rise Set
Actual Time 5:29 AM EET 6:28 PM EET
Civil Twilight 5:04 AM EET 6:53 PM EET
Nautical Twilight 4:35 AM EET 7:22 PM EET
Astronomical Twilight 4:04 AM EET 7:52 PM EET
Moon 9:45 PM EET 7:42 AM EET
Length of Visible Light 13h 49m
Length of Day
12h 59m
Tomorrow will be 1m 42s longer.
Waning Gibbous, 91% of the Moon is Illuminated
Apr 17
Waning Gibbous
Apr 22
Last Quarter
Apr 29
New
May 6
First Quarter
May 14
Full

Yesterday's Extremes

Country Highs Country Lows

Community

  • Morning Light
    Morning Light
  • New Day
    New Day
  • Lake Michigan Sunrise
    Lake Michigan Sunrise
  • sunset from izmir, narlıdere
    sunset from izmir, narlıdere
  • oregon cherry
    oregon cherry

WunderPhotos

Upload Photos

1,702,209 photos uploaded!

WunderBlogs® & News

Nearby

Snow Depth

Not available.

Coastal Water Temperatures

Place Temperature
No Stations Reporting

Earthquake Activity

City Distance Mag. Time & Date
No recent earthquake activity has been reported nearby.
Minimum magnitude displayed is 2.5.

Nearby Weather Stations

There are no personal weather stations in this area.

What do you think?

We're not finished. Please let us know what you like, what you don't like, and what you are still missing.